sensor_id;sensor_type;location;lat;lon;timestamp;pressure;altitude;pressure_sealevel;temperature
15626;BMP180;7912;51.376;6.126;2022-09-09T00:00:17;100511.00;;;18.40
15626;BMP180;7912;51.376;6.126;2022-09-09T00:13:29;100508.00;;;18.30
15626;BMP180;7912;51.376;6.126;2022-09-09T00:16:31;100505.00;;;18.20
15626;BMP180;7912;51.376;6.126;2022-09-09T00:19:37;100500.00;;;18.20
15626;BMP180;7912;51.376;6.126;2022-09-09T00:22:50;100495.00;;;18.20
15626;BMP180;7912;51.376;6.126;2022-09-09T00:32:21;100485.00;;;18.10
15626;BMP180;7912;51.376;6.126;2022-09-09T00:41:21;100491.00;;;18.00
15626;BMP180;7912;51.376;6.126;2022-09-09T00:44:43;100478.00;;;18.00
15626;BMP180;7912;51.376;6.126;2022-09-09T00:47:51;100486.00;;;18.00
15626;BMP180;7912;51.376;6.126;2022-09-09T00:50:56;100486.00;;;17.90
15626;BMP180;7912;51.376;6.126;2022-09-09T00:57:14;100485.00;;;17.90
15626;BMP180;7912;51.376;6.126;2022-09-09T01:00:35;100492.00;;;17.90
15626;BMP180;7912;51.376;6.126;2022-09-09T01:06:34;100483.00;;;17.80
15626;BMP180;7912;51.376;6.126;2022-09-09T01:12:43;100484.00;;;17.80
15626;BMP180;7912;51.376;6.126;2022-09-09T01:15:29;100464.00;;;17.80
15626;BMP180;7912;51.376;6.126;2022-09-09T01:18:17;100479.00;;;17.80
15626;BMP180;7912;51.376;6.126;2022-09-09T01:24:40;100486.00;;;17.80
15626;BMP180;7912;51.376;6.126;2022-09-09T01:27:25;100484.00;;;17.80
15626;BMP180;7912;51.376;6.126;2022-09-09T01:29:56;100482.00;;;17.80
15626;BMP180;7912;51.376;6.126;2022-09-09T01:32:52;100476.00;;;17.80
15626;BMP180;7912;51.376;6.126;2022-09-09T01:36:19;100487.00;;;17.90
15626;BMP180;7912;51.376;6.126;2022-09-09T01:38:44;100485.00;;;17.90
15626;BMP180;7912;51.376;6.126;2022-09-09T01:41:14;100476.00;;;17.90
15626;BMP180;7912;51.376;6.126;2022-09-09T01:43:44;100483.00;;;17.90
15626;BMP180;7912;51.376;6.126;2022-09-09T01:46:13;100477.00;;;17.90
15626;BMP180;7912;51.376;6.126;2022-09-09T01:48:42;100477.00;;;17.90
15626;BMP180;7912;51.376;6.126;2022-09-09T01:51:10;100477.00;;;17.90
15626;BMP180;7912;51.376;6.126;2022-09-09T01:53:41;100470.00;;;18.00
15626;BMP180;7912;51.376;6.126;2022-09-09T02:05:52;100477.00;;;17.90
15626;BMP180;7912;51.376;6.126;2022-09-09T02:08:49;100473.00;;;18.00
15626;BMP180;7912;51.376;6.126;2022-09-09T02:11:20;100448.00;;;18.00
15626;BMP180;7912;51.376;6.126;2022-09-09T02:13:54;100462.00;;;18.00
15626;BMP180;7912;51.376;6.126;2022-09-09T02:16:44;100460.00;;;18.00
15626;BMP180;7912;51.376;6.126;2022-09-09T02:21:55;100457.00;;;18.00
15626;BMP180;7912;51.376;6.126;2022-09-09T02:24:23;100467.00;;;18.00
15626;BMP180;7912;51.376;6.126;2022-09-09T02:26:54;100460.00;;;18.00
15626;BMP180;7912;51.376;6.126;2022-09-09T02:29:33;100458.00;;;18.00
15626;BMP180;7912;51.376;6.126;2022-09-09T02:32:06;100450.00;;;18.00
15626;BMP180;7912;51.376;6.126;2022-09-09T02:34:42;100455.00;;;18.00
15626;BMP180;7912;51.376;6.126;2022-09-09T02:37:18;100457.00;;;18.10
15626;BMP180;7912;51.376;6.126;2022-09-09T02:39:47;100450.00;;;18.00
15626;BMP180;7912;51.376;6.126;2022-09-09T02:42:17;100447.00;;;18.00
15626;BMP180;7912;51.376;6.126;2022-09-09T02:44:46;100452.00;;;18.00
15626;BMP180;7912;51.376;6.126;2022-09-09T02:47:34;100445.00;;;18.00
15626;BMP180;7912;51.376;6.126;2022-09-09T02:54:30;100447.00;;;18.00
15626;BMP180;7912;51.376;6.126;2022-09-09T02:57:25;100447.00;;;18.00
15626;BMP180;7912;51.376;6.126;2022-09-09T03:00:00;100429.00;;;18.00
15626;BMP180;7912;51.376;6.126;2022-09-09T03:02:29;100450.00;;;18.00
15626;BMP180;7912;51.376;6.126;2022-09-09T03:08:23;100447.00;;;18.10
15626;BMP180;7912;51.376;6.126;2022-09-09T03:10:51;100436.00;;;18.10
15626;BMP180;7912;51.376;6.126;2022-09-09T03:13:24;100443.00;;;18.20
15626;BMP180;7912;51.376;6.126;2022-09-09T03:15:52;100440.00;;;18.20
15626;BMP180;7912;51.376;6.126;2022-09-09T03:18:19;100452.00;;;18.20
15626;BMP180;7912;51.376;6.126;2022-09-09T03:20:49;100447.00;;;18.30
15626;BMP180;7912;51.376;6.126;2022-09-09T03:23:17;100441.00;;;18.30
15626;BMP180;7912;51.376;6.126;2022-09-09T03:25:51;100434.00;;;18.40
15626;BMP180;7912;51.376;6.126;2022-09-09T03:28:19;100438.00;;;18.40
15626;BMP180;7912;51.376;6.126;2022-09-09T03:30:47;100433.00;;;18.40
15626;BMP180;7912;51.376;6.126;2022-09-09T03:33:15;100443.00;;;18.40
15626;BMP180;7912;51.376;6.126;2022-09-09T03:35:46;100440.00;;;18.40
15626;BMP180;7912;51.376;6.126;2022-09-09T03:38:24;100439.00;;;18.40
15626;BMP180;7912;51.376;6.126;2022-09-09T03:40:56;100440.00;;;18.40
15626;BMP180;7912;51.376;6.126;2022-09-09T03:43:26;100440.00;;;18.50
15626;BMP180;7912;51.376;6.126;2022-09-09T03:45:54;100439.00;;;18.50
15626;BMP180;7912;51.376;6.126;2022-09-09T03:48:26;100442.00;;;18.50
15626;BMP180;7912;51.376;6.126;2022-09-09T03:50:56;100437.00;;;18.50
15626;BMP180;7912;51.376;6.126;2022-09-09T03:53:25;100439.00;;;18.50
15626;BMP180;7912;51.376;6.126;2022-09-09T03:55:58;100440.00;;;18.60
15626;BMP180;7912;51.376;6.126;2022-09-09T03:58:27;100450.00;;;18.60
15626;BMP180;7912;51.376;6.126;2022-09-09T04:00:57;100450.00;;;18.60
15626;BMP180;7912;51.376;6.126;2022-09-09T04:03:26;100443.00;;;18.60
15626;BMP180;7912;51.376;6.126;2022-09-09T04:05:58;100451.00;;;18.60
15626;BMP180;7912;51.376;6.126;2022-09-09T04:08:26;100450.00;;;18.70
15626;BMP180;7912;51.376;6.126;2022-09-09T04:10:54;100456.00;;;18.70
15626;BMP180;7912;51.376;6.126;2022-09-09T04:13:25;100446.00;;;18.70
15626;BMP180;7912;51.376;6.126;2022-09-09T04:16:01;100445.00;;;18.70
15626;BMP180;7912;51.376;6.126;2022-09-09T04:18:29;100456.00;;;18.70
15626;BMP180;7912;51.376;6.126;2022-09-09T04:20:57;100445.00;;;18.70
15626;BMP180;7912;51.376;6.126;2022-09-09T04:23:27;100445.00;;;18.70
15626;BMP180;7912;51.376;6.126;2022-09-09T04:25:59;100436.00;;;18.80
15626;BMP180;7912;51.376;6.126;2022-09-09T04:28:30;100441.00;;;18.80
15626;BMP180;7912;51.376;6.126;2022-09-09T04:31:16;100438.00;;;18.80
15626;BMP180;7912;51.376;6.126;2022-09-09T04:33:45;100433.00;;;18.80
15626;BMP180;7912;51.376;6.126;2022-09-09T04:36:13;100434.00;;;18.90
15626;BMP180;7912;51.376;6.126;2022-09-09T04:38:41;100435.00;;;18.90
15626;BMP180;7912;51.376;6.126;2022-09-09T04:41:08;100425.00;;;18.90
15626;BMP180;7912;51.376;6.126;2022-09-09T04:43:40;100433.00;;;18.90
15626;BMP180;7912;51.376;6.126;2022-09-09T04:46:10;100439.00;;;19.00
15626;BMP180;7912;51.376;6.126;2022-09-09T04:48:38;100432.00;;;19.00
15626;BMP180;7912;51.376;6.126;2022-09-09T04:51:12;100436.00;;;19.00
15626;BMP180;7912;51.376;6.126;2022-09-09T04:53:40;100424.00;;;19.00
15626;BMP180;7912;51.376;6.126;2022-09-09T04:56:13;100417.00;;;19.10
15626;BMP180;7912;51.376;6.126;2022-09-09T04:58:42;100426.00;;;19.00
15626;BMP180;7912;51.376;6.126;2022-09-09T05:01:18;100425.00;;;19.10
15626;BMP180;7912;51.376;6.126;2022-09-09T05:03:46;100421.00;;;19.10
15626;BMP180;7912;51.376;6.126;2022-09-09T05:06:17;100429.00;;;19.10
15626;BMP180;7912;51.376;6.126;2022-09-09T05:08:45;100420.00;;;19.20
15626;BMP180;7912;51.376;6.126;2022-09-09T05:11:24;100411.00;;;19.20
15626;BMP180;7912;51.376;6.126;2022-09-09T05:13:53;100420.00;;;19.20
15626;BMP180;7912;51.376;6.126;2022-09-09T05:16:46;100415.00;;;19.20
15626;BMP180;7912;51.376;6.126;2022-09-09T05:19:14;100417.00;;;19.20
15626;BMP180;7912;51.376;6.126;2022-09-09T05:21:41;100417.00;;;19.20
15626;BMP180;7912;51.376;6.126;2022-09-09T05:24:08;100410.00;;;19.20
15626;BMP180;7912;51.376;6.126;2022-09-09T05:26:38;100411.00;;;19.20
15626;BMP180;7912;51.376;6.126;2022-09-09T05:29:09;100413.00;;;19.30
15626;BMP180;7912;51.376;6.126;2022-09-09T05:31:39;100407.00;;;19.30
15626;BMP180;7912;51.376;6.126;2022-09-09T05:34:14;100417.00;;;19.20
15626;BMP180;7912;51.376;6.126;2022-09-09T05:36:47;100417.00;;;19.20
15626;BMP180;7912;51.376;6.126;2022-09-09T05:39:19;100414.00;;;19.20
15626;BMP180;7912;51.376;6.126;2022-09-09T05:41:47;100409.00;;;19.20
15626;BMP180;7912;51.376;6.126;2022-09-09T05:44:14;100414.00;;;19.20
15626;BMP180;7912;51.376;6.126;2022-09-09T05:46:45;100418.00;;;19.20
15626;BMP180;7912;51.376;6.126;2022-09-09T05:49:17;100414.00;;;19.20
15626;BMP180;7912;51.376;6.126;2022-09-09T05:52:04;100417.00;;;19.20
15626;BMP180;7912;51.376;6.126;2022-09-09T05:54:32;100428.00;;;19.20
15626;BMP180;7912;51.376;6.126;2022-09-09T05:57:02;100426.00;;;19.30
15626;BMP180;7912;51.376;6.126;2022-09-09T05:59:30;100423.00;;;19.30
15626;BMP180;7912;51.376;6.126;2022-09-09T06:01:59;100430.00;;;19.30
15626;BMP180;7912;51.376;6.126;2022-09-09T06:04:27;100432.00;;;19.40
15626;BMP180;7912;51.376;6.126;2022-09-09T06:06:57;100442.00;;;19.50
15626;BMP180;7912;51.376;6.126;2022-09-09T06:09:26;100440.00;;;19.50
15626;BMP180;7912;51.376;6.126;2022-09-09T06:11:54;100433.00;;;19.60
15626;BMP180;7912;51.376;6.126;2022-09-09T06:14:21;100426.00;;;19.60
15626;BMP180;7912;51.376;6.126;2022-09-09T06:16:49;100425.00;;;19.60
15626;BMP180;7912;51.376;6.126;2022-09-09T06:19:16;100431.00;;;19.60
15626;BMP180;7912;51.376;6.126;2022-09-09T06:21:44;100425.00;;;19.60
15626;BMP180;7912;51.376;6.126;2022-09-09T06:24:14;100433.00;;;19.70
15626;BMP180;7912;51.376;6.126;2022-09-09T06:26:44;100442.00;;;19.70
15626;BMP180;7912;51.376;6.126;2022-09-09T06:29:12;100432.00;;;19.70
15626;BMP180;7912;51.376;6.126;2022-09-09T06:31:39;100438.00;;;19.70
15626;BMP180;7912;51.376;6.126;2022-09-09T06:34:10;100436.00;;;19.60
15626;BMP180;7912;51.376;6.126;2022-09-09T06:36:43;100436.00;;;19.70
15626;BMP180;7912;51.376;6.126;2022-09-09T06:39:11;100441.00;;;19.60
15626;BMP180;7912;51.376;6.126;2022-09-09T06:41:42;100428.00;;;19.70
15626;BMP180;7912;51.376;6.126;2022-09-09T06:44:10;100434.00;;;19.70
15626;BMP180;7912;51.376;6.126;2022-09-09T06:46:39;100440.00;;;19.70
15626;BMP180;7912;51.376;6.126;2022-09-09T06:49:08;100435.00;;;19.90
15626;BMP180;7912;51.376;6.126;2022-09-09T06:51:37;100429.00;;;20.00
15626;BMP180;7912;51.376;6.126;2022-09-09T06:54:12;100439.00;;;20.20
15626;BMP180;7912;51.376;6.126;2022-09-09T06:56:41;100447.00;;;20.30
15626;BMP180;7912;51.376;6.126;2022-09-09T06:59:11;100441.00;;;20.30
15626;BMP180;7912;51.376;6.126;2022-09-09T07:01:41;100449.00;;;20.40
15626;BMP180;7912;51.376;6.126;2022-09-09T07:04:10;100442.00;;;20.50
15626;BMP180;7912;51.376;6.126;2022-09-09T07:06:42;100442.00;;;20.50
15626;BMP180;7912;51.376;6.126;2022-09-09T07:09:15;100435.00;;;20.50
15626;BMP180;7912;51.376;6.126;2022-09-09T07:11:46;100440.00;;;20.50
15626;BMP180;7912;51.376;6.126;2022-09-09T07:14:15;100430.00;;;20.50
15626;BMP180;7912;51.376;6.126;2022-09-09T07:16:44;100435.00;;;20.50
15626;BMP180;7912;51.376;6.126;2022-09-09T07:19:13;100431.00;;;20.60
15626;BMP180;7912;51.376;6.126;2022-09-09T07:21:42;100440.00;;;20.70
15626;BMP180;7912;51.376;6.126;2022-09-09T07:24:10;100431.00;;;20.80
15626;BMP180;7912;51.376;6.126;2022-09-09T07:26:40;100426.00;;;21.00
15626;BMP180;7912;51.376;6.126;2022-09-09T07:29:11;100431.00;;;21.00
15626;BMP180;7912;51.376;6.126;2022-09-09T07:31:47;100432.00;;;21.00
15626;BMP180;7912;51.376;6.126;2022-09-09T07:34:15;100443.00;;;21.00
15626;BMP180;7912;51.376;6.126;2022-09-09T07:36:42;100430.00;;;20.90
15626;BMP180;7912;51.376;6.126;2022-09-09T07:39:13;100433.00;;;20.90
15626;BMP180;7912;51.376;6.126;2022-09-09T07:41:44;100437.00;;;21.00
15626;BMP180;7912;51.376;6.126;2022-09-09T07:44:19;100433.00;;;21.00
15626;BMP180;7912;51.376;6.126;2022-09-09T07:46:48;100446.00;;;21.00
15626;BMP180;7912;51.376;6.126;2022-09-09T07:49:18;100441.00;;;21.00
15626;BMP180;7912;51.376;6.126;2022-09-09T07:51:55;100444.00;;;20.90
15626;BMP180;7912;51.376;6.126;2022-09-09T07:54:23;100438.00;;;20.90
15626;BMP180;7912;51.376;6.126;2022-09-09T07:56:52;100452.00;;;20.90
15626;BMP180;7912;51.376;6.126;2022-09-09T07:59:21;100449.00;;;20.90
15626;BMP180;7912;51.376;6.126;2022-09-09T08:01:53;100443.00;;;20.90
15626;BMP180;7912;51.376;6.126;2022-09-09T08:04:23;100440.00;;;21.00
15626;BMP180;7912;51.376;6.126;2022-09-09T08:07:00;100450.00;;;21.00
15626;BMP180;7912;51.376;6.126;2022-09-09T08:09:33;100455.00;;;21.20
15626;BMP180;7912;51.376;6.126;2022-09-09T08:12:01;100451.00;;;21.40
15626;BMP180;7912;51.376;6.126;2022-09-09T08:14:41;100454.00;;;21.70
15626;BMP180;7912;51.376;6.126;2022-09-09T08:17:56;100464.00;;;22.00
15626;BMP180;7912;51.376;6.126;2022-09-09T08:20:23;100458.00;;;22.10
15626;BMP180;7912;51.376;6.126;2022-09-09T08:22:50;100461.00;;;22.20
15626;BMP180;7912;51.376;6.126;2022-09-09T08:25:17;100466.00;;;22.30
15626;BMP180;7912;51.376;6.126;2022-09-09T08:27:45;100460.00;;;22.30
15626;BMP180;7912;51.376;6.126;2022-09-09T08:30:18;100462.00;;;22.30
15626;BMP180;7912;51.376;6.126;2022-09-09T08:32:46;100464.00;;;22.30
15626;BMP180;7912;51.376;6.126;2022-09-09T08:35:20;100461.00;;;22.30
15626;BMP180;7912;51.376;6.126;2022-09-09T08:37:48;100466.00;;;22.40
15626;BMP180;7912;51.376;6.126;2022-09-09T08:40:28;100471.00;;;22.40
15626;BMP180;7912;51.376;6.126;2022-09-09T08:43:02;100467.00;;;22.40
15626;BMP180;7912;51.376;6.126;2022-09-09T08:46:10;100468.00;;;22.50
15626;BMP180;7912;51.376;6.126;2022-09-09T08:49:15;100471.00;;;22.50
15626;BMP180;7912;51.376;6.126;2022-09-09T08:51:50;100465.00;;;22.60
15626;BMP180;7912;51.376;6.126;2022-09-09T08:54:21;100474.00;;;22.60
15626;BMP180;7912;51.376;6.126;2022-09-09T08:57:25;100476.00;;;22.70
15626;BMP180;7912;51.376;6.126;2022-09-09T08:59:56;100482.00;;;22.80
15626;BMP180;7912;51.376;6.126;2022-09-09T09:02:59;100475.00;;;23.10
15626;BMP180;7912;51.376;6.126;2022-09-09T09:05:37;100469.00;;;23.50
15626;BMP180;7912;51.376;6.126;2022-09-09T09:08:45;100477.00;;;23.80
15626;BMP180;7912;51.376;6.126;2022-09-09T09:11:13;100475.00;;;24.00
15626;BMP180;7912;51.376;6.126;2022-09-09T09:17:04;100487.00;;;23.90
15626;BMP180;7912;51.376;6.126;2022-09-09T09:19:39;100487.00;;;23.80
15626;BMP180;7912;51.376;6.126;2022-09-09T09:25:27;100485.00;;;23.50
15626;BMP180;7912;51.376;6.126;2022-09-09T09:28:17;100491.00;;;23.50
15626;BMP180;7912;51.376;6.126;2022-09-09T09:31:10;100483.00;;;23.60
15626;BMP180;7912;51.376;6.126;2022-09-09T09:36:10;100483.00;;;23.70
15626;BMP180;7912;51.376;6.126;2022-09-09T09:38:37;100482.00;;;23.70
15626;BMP180;7912;51.376;6.126;2022-09-09T09:41:38;100494.00;;;23.60
15626;BMP180;7912;51.376;6.126;2022-09-09T09:44:30;100488.00;;;23.50
15626;BMP180;7912;51.376;6.126;2022-09-09T09:47:22;100498.00;;;23.30
15626;BMP180;7912;51.376;6.126;2022-09-09T09:49:59;100493.00;;;23.20
15626;BMP180;7912;51.376;6.126;2022-09-09T09:52:32;100504.00;;;23.00
15626;BMP180;7912;51.376;6.126;2022-09-09T09:55:04;100489.00;;;22.90
15626;BMP180;7912;51.376;6.126;2022-09-09T09:57:39;100506.00;;;22.80
15626;BMP180;7912;51.376;6.126;2022-09-09T10:00:19;100500.00;;;22.70
15626;BMP180;7912;51.376;6.126;2022-09-09T10:02:48;100501.00;;;22.60
15626;BMP180;7912;51.376;6.126;2022-09-09T10:05:26;100495.00;;;22.60
15626;BMP180;7912;51.376;6.126;2022-09-09T10:08:16;100497.00;;;22.50
15626;BMP180;7912;51.376;6.126;2022-09-09T10:14:21;100502.00;;;22.70
15626;BMP180;7912;51.376;6.126;2022-09-09T10:22:51;100498.00;;;23.10
15626;BMP180;7912;51.376;6.126;2022-09-09T10:29:01;100488.00;;;23.20
15626;BMP180;7912;51.376;6.126;2022-09-09T10:32:03;100493.00;;;23.10
15626;BMP180;7912;51.376;6.126;2022-09-09T10:35:08;100496.00;;;23.10
15626;BMP180;7912;51.376;6.126;2022-09-09T10:43:57;100482.00;;;23.30
15626;BMP180;7912;51.376;6.126;2022-09-09T10:52:36;100508.00;;;23.40
15626;BMP180;7912;51.376;6.126;2022-09-09T10:59:14;100509.00;;;22.70
15626;BMP180;7912;51.376;6.126;2022-09-09T11:01:55;100516.00;;;22.50
15626;BMP180;7912;51.376;6.126;2022-09-09T11:04:40;100505.00;;;22.40
15626;BMP180;7912;51.376;6.126;2022-09-09T11:07:16;100504.00;;;22.40
15626;BMP180;7912;51.376;6.126;2022-09-09T11:09:58;100495.00;;;22.60
15626;BMP180;7912;51.376;6.126;2022-09-09T11:12:28;100493.00;;;22.90
15626;BMP180;7912;51.376;6.126;2022-09-09T11:15:06;100498.00;;;23.10
15626;BMP180;7912;51.376;6.126;2022-09-09T11:17:56;100491.00;;;23.10
15626;BMP180;7912;51.376;6.126;2022-09-09T11:20:26;100494.00;;;23.10
15626;BMP180;7912;51.376;6.126;2022-09-09T11:27:11;100493.00;;;22.80
15626;BMP180;7912;51.376;6.126;2022-09-09T11:36:25;100515.00;;;22.40
15626;BMP180;7912;51.376;6.126;2022-09-09T11:49:04;100521.00;;;21.80
15626;BMP180;7912;51.376;6.126;2022-09-09T11:51:40;100532.00;;;21.70
15626;BMP180;7912;51.376;6.126;2022-09-09T11:54:34;100533.00;;;21.60
15626;BMP180;7912;51.376;6.126;2022-09-09T11:57:26;100526.00;;;21.50
15626;BMP180;7912;51.376;6.126;2022-09-09T11:59:57;100523.00;;;21.30
15626;BMP180;7912;51.376;6.126;2022-09-09T12:02:28;100520.00;;;21.30
15626;BMP180;7912;51.376;6.126;2022-09-09T12:05:09;100518.00;;;21.10
15626;BMP180;7912;51.376;6.126;2022-09-09T12:08:32;100511.00;;;21.00
15626;BMP180;7912;51.376;6.126;2022-09-09T12:11:47;100495.00;;;21.10
15626;BMP180;7912;51.376;6.126;2022-09-09T12:18:03;100501.00;;;22.00
15626;BMP180;7912;51.376;6.126;2022-09-09T12:21:04;100498.00;;;22.50
15626;BMP180;7912;51.376;6.126;2022-09-09T12:24:13;100489.00;;;22.80
15626;BMP180;7912;51.376;6.126;2022-09-09T12:27:02;100490.00;;;23.00
15626;BMP180;7912;51.376;6.126;2022-09-09T12:29:52;100489.00;;;23.20
15626;BMP180;7912;51.376;6.126;2022-09-09T12:32:33;100482.00;;;23.20
15626;BMP180;7912;51.376;6.126;2022-09-09T12:35:27;100485.00;;;23.20
15626;BMP180;7912;51.376;6.126;2022-09-09T12:38:41;100485.00;;;23.50
15626;BMP180;7912;51.376;6.126;2022-09-09T12:41:25;100478.00;;;23.60
15626;BMP180;7912;51.376;6.126;2022-09-09T12:44:09;100478.00;;;23.80
15626;BMP180;7912;51.376;6.126;2022-09-09T12:46:42;100475.00;;;24.00
15626;BMP180;7912;51.376;6.126;2022-09-09T12:49:36;100474.00;;;24.00
15626;BMP180;7912;51.376;6.126;2022-09-09T12:54:52;100471.00;;;24.10
15626;BMP180;7912;51.376;6.126;2022-09-09T12:57:25;100463.00;;;24.10
15626;BMP180;7912;51.376;6.126;2022-09-09T13:00:27;100469.00;;;24.10
15626;BMP180;7912;51.376;6.126;2022-09-09T13:03:16;100467.00;;;24.10
15626;BMP180;7912;51.376;6.126;2022-09-09T13:05:44;100461.00;;;24.10
15626;BMP180;7912;51.376;6.126;2022-09-09T13:08:16;100464.00;;;24.00
15626;BMP180;7912;51.376;6.126;2022-09-09T13:11:03;100468.00;;;24.00
15626;BMP180;7912;51.376;6.126;2022-09-09T13:13:39;100461.00;;;24.00
15626;BMP180;7912;51.376;6.126;2022-09-09T13:16:26;100450.00;;;24.00
15626;BMP180;7912;51.376;6.126;2022-09-09T13:19:17;100444.00;;;24.30
15626;BMP180;7912;51.376;6.126;2022-09-09T13:21:51;100447.00;;;24.50
15626;BMP180;7912;51.376;6.126;2022-09-09T13:24:32;100441.00;;;24.50
15626;BMP180;7912;51.376;6.126;2022-09-09T13:29:53;100441.00;;;24.40
15626;BMP180;7912;51.376;6.126;2022-09-09T13:32:26;100427.00;;;24.40
15626;BMP180;7912;51.376;6.126;2022-09-09T13:35:00;100440.00;;;24.40
15626;BMP180;7912;51.376;6.126;2022-09-09T13:37:37;100437.00;;;24.50
15626;BMP180;7912;51.376;6.126;2022-09-09T13:40:14;100440.00;;;24.60
15626;BMP180;7912;51.376;6.126;2022-09-09T13:42:45;100440.00;;;24.90
15626;BMP180;7912;51.376;6.126;2022-09-09T13:45:21;100441.00;;;24.90
15626;BMP180;7912;51.376;6.126;2022-09-09T13:47:50;100440.00;;;24.80
15626;BMP180;7912;51.376;6.126;2022-09-09T13:50:32;100451.00;;;24.70
15626;BMP180;7912;51.376;6.126;2022-09-09T13:52:59;100446.00;;;24.50
15626;BMP180;7912;51.376;6.126;2022-09-09T13:55:28;100451.00;;;24.30
15626;BMP180;7912;51.376;6.126;2022-09-09T13:58:00;100453.00;;;24.10
15626;BMP180;7912;51.376;6.126;2022-09-09T14:00:33;100449.00;;;23.90
15626;BMP180;7912;51.376;6.126;2022-09-09T14:03:01;100455.00;;;23.70
15626;BMP180;7912;51.376;6.126;2022-09-09T14:05:43;100461.00;;;23.40
15626;BMP180;7912;51.376;6.126;2022-09-09T14:08:23;100448.00;;;23.20
15626;BMP180;7912;51.376;6.126;2022-09-09T14:10:56;100446.00;;;23.00
15626;BMP180;7912;51.376;6.126;2022-09-09T14:13:26;100447.00;;;22.90
15626;BMP180;7912;51.376;6.126;2022-09-09T14:15:56;100452.00;;;22.90
15626;BMP180;7912;51.376;6.126;2022-09-09T14:18:29;100436.00;;;23.30
15626;BMP180;7912;51.376;6.126;2022-09-09T14:21:05;100429.00;;;24.00
15626;BMP180;7912;51.376;6.126;2022-09-09T14:23:35;100436.00;;;24.60
15626;BMP180;7912;51.376;6.126;2022-09-09T14:26:02;100421.00;;;25.00
15626;BMP180;7912;51.376;6.126;2022-09-09T14:28:33;100435.00;;;25.20
15626;BMP180;7912;51.376;6.126;2022-09-09T14:31:21;100428.00;;;25.30
15626;BMP180;7912;51.376;6.126;2022-09-09T14:33:48;100431.00;;;25.30
15626;BMP180;7912;51.376;6.126;2022-09-09T14:36:19;100438.00;;;25.20
15626;BMP180;7912;51.376;6.126;2022-09-09T14:38:46;100436.00;;;25.10
15626;BMP180;7912;51.376;6.126;2022-09-09T14:41:18;100428.00;;;25.20
15626;BMP180;7912;51.376;6.126;2022-09-09T14:43:49;100438.00;;;25.50
15626;BMP180;7912;51.376;6.126;2022-09-09T14:46:19;100438.00;;;25.90
15626;BMP180;7912;51.376;6.126;2022-09-09T14:48:55;100431.00;;;26.20
15626;BMP180;7912;51.376;6.126;2022-09-09T14:51:25;100426.00;;;26.30
15626;BMP180;7912;51.376;6.126;2022-09-09T14:53:59;100430.00;;;26.40
15626;BMP180;7912;51.376;6.126;2022-09-09T14:56:34;100425.00;;;26.60
15626;BMP180;7912;51.376;6.126;2022-09-09T14:59:04;100414.00;;;26.80
15626;BMP180;7912;51.376;6.126;2022-09-09T15:01:32;100404.00;;;27.10
15626;BMP180;7912;51.376;6.126;2022-09-09T15:04:05;100406.00;;;27.40
15626;BMP180;7912;51.376;6.126;2022-09-09T15:06:35;100409.00;;;27.70
15626;BMP180;7912;51.376;6.126;2022-09-09T15:09:04;100398.00;;;28.00
15626;BMP180;7912;51.376;6.126;2022-09-09T15:11:37;100397.00;;;28.10
15626;BMP180;7912;51.376;6.126;2022-09-09T15:14:08;100399.00;;;28.00
15626;BMP180;7912;51.376;6.126;2022-09-09T15:16:39;100409.00;;;28.00
15626;BMP180;7912;51.376;6.126;2022-09-09T15:19:07;100398.00;;;27.80
15626;BMP180;7912;51.376;6.126;2022-09-09T15:21:37;100419.00;;;27.50
15626;BMP180;7912;51.376;6.126;2022-09-09T15:24:06;100419.00;;;27.10
15626;BMP180;7912;51.376;6.126;2022-09-09T15:26:37;100415.00;;;26.90
15626;BMP180;7912;51.376;6.126;2022-09-09T15:29:06;100404.00;;;26.80
15626;BMP180;7912;51.376;6.126;2022-09-09T15:31:36;100408.00;;;26.70
15626;BMP180;7912;51.376;6.126;2022-09-09T15:34:06;100403.00;;;26.70
15626;BMP180;7912;51.376;6.126;2022-09-09T15:36:40;100406.00;;;26.70
15626;BMP180;7912;51.376;6.126;2022-09-09T15:39:12;100417.00;;;26.70
15626;BMP180;7912;51.376;6.126;2022-09-09T15:41:40;100405.00;;;26.70
15626;BMP180;7912;51.376;6.126;2022-09-09T15:44:11;100405.00;;;26.60
15626;BMP180;7912;51.376;6.126;2022-09-09T15:46:49;100400.00;;;26.50
15626;BMP180;7912;51.376;6.126;2022-09-09T15:49:23;100404.00;;;26.30
15626;BMP180;7912;51.376;6.126;2022-09-09T15:52:00;100404.00;;;26.30
15626;BMP180;7912;51.376;6.126;2022-09-09T15:54:35;100401.00;;;26.40
15626;BMP180;7912;51.376;6.126;2022-09-09T15:57:11;100392.00;;;26.30
15626;BMP180;7912;51.376;6.126;2022-09-09T15:59:41;100404.00;;;26.30
15626;BMP180;7912;51.376;6.126;2022-09-09T16:02:12;100405.00;;;26.30
15626;BMP180;7912;51.376;6.126;2022-09-09T16:04:39;100399.00;;;26.20
15626;BMP180;7912;51.376;6.126;2022-09-09T16:07:07;100414.00;;;26.10
15626;BMP180;7912;51.376;6.126;2022-09-09T16:09:35;100409.00;;;25.90
15626;BMP180;7912;51.376;6.126;2022-09-09T16:12:04;100421.00;;;25.90
15626;BMP180;7912;51.376;6.126;2022-09-09T16:14:36;100421.00;;;25.80
15626;BMP180;7912;51.376;6.126;2022-09-09T16:17:06;100430.00;;;25.70
15626;BMP180;7912;51.376;6.126;2022-09-09T16:19:34;100432.00;;;25.60
15626;BMP180;7912;51.376;6.126;2022-09-09T16:22:05;100428.00;;;25.60
15626;BMP180;7912;51.376;6.126;2022-09-09T16:24:33;100438.00;;;25.50
15626;BMP180;7912;51.376;6.126;2022-09-09T16:27:00;100436.00;;;25.40
15626;BMP180;7912;51.376;6.126;2022-09-09T16:29:30;100435.00;;;25.40
15626;BMP180;7912;51.376;6.126;2022-09-09T16:32:00;100438.00;;;25.40
15626;BMP180;7912;51.376;6.126;2022-09-09T16:34:32;100437.00;;;25.30
15626;BMP180;7912;51.376;6.126;2022-09-09T16:37:03;100431.00;;;25.20
15626;BMP180;7912;51.376;6.126;2022-09-09T16:39:33;100439.00;;;25.10
15626;BMP180;7912;51.376;6.126;2022-09-09T16:42:01;100437.00;;;25.00
15626;BMP180;7912;51.376;6.126;2022-09-09T16:44:34;100439.00;;;24.90
15626;BMP180;7912;51.376;6.126;2022-09-09T16:47:02;100437.00;;;24.90
15626;BMP180;7912;51.376;6.126;2022-09-09T16:49:30;100437.00;;;24.80
15626;BMP180;7912;51.376;6.126;2022-09-09T16:52:00;100434.00;;;24.70
15626;BMP180;7912;51.376;6.126;2022-09-09T16:54:29;100448.00;;;24.70
15626;BMP180;7912;51.376;6.126;2022-09-09T16:56:57;100440.00;;;24.60
15626;BMP180;7912;51.376;6.126;2022-09-09T16:59:28;100444.00;;;24.60
15626;BMP180;7912;51.376;6.126;2022-09-09T17:01:55;100449.00;;;24.50